sensor_id;sensor_type;location;lat;lon;timestamp;P1;durP1;ratioP1;P2;durP2;ratioP2
56999;SDS011;42891;50.006;21.964;2023-07-24T00:02:55;5.22;;;3.20;;
56999;SDS011;42891;50.006;21.964;2023-07-24T00:06:56;6.50;;;3.08;;
56999;SDS011;42891;50.006;21.964;2023-07-24T00:10:56;6.53;;;3.50;;
56999;SDS011;42891;50.006;21.964;2023-07-24T00:14:57;4.35;;;3.13;;
56999;SDS011;42891;50.006;21.964;2023-07-24T00:18:57;6.20;;;2.95;;
56999;SDS011;42891;50.006;21.964;2023-07-24T00:22:58;9.40;;;3.85;;
56999;SDS011;42891;50.006;21.964;2023-07-24T00:26:58;7.97;;;3.10;;
56999;SDS011;42891;50.006;21.964;2023-07-24T00:30:58;6.40;;;3.30;;
56999;SDS011;42891;50.006;21.964;2023-07-24T00:34:59;5.70;;;3.30;;
56999;SDS011;42891;50.006;21.964;2023-07-24T00:38:59;9.30;;;3.60;;
56999;SDS011;42891;50.006;21.964;2023-07-24T00:42:59;3.97;;;3.08;;
56999;SDS011;42891;50.006;21.964;2023-07-24T00:47:00;4.57;;;3.40;;
56999;SDS011;42891;50.006;21.964;2023-07-24T00:51:00;4.30;;;3.08;;
56999;SDS011;42891;50.006;21.964;2023-07-24T00:55:01;5.00;;;3.10;;
56999;SDS011;42891;50.006;21.964;2023-07-24T00:59:02;5.35;;;3.25;;
56999;SDS011;42891;50.006;21.964;2023-07-24T01:03:02;4.43;;;3.17;;
56999;SDS011;42891;50.006;21.964;2023-07-24T01:07:03;5.60;;;3.53;;
56999;SDS011;42891;50.006;21.964;2023-07-24T01:11:10;5.13;;;3.00;;
56999;SDS011;42891;50.006;21.964;2023-07-24T01:15:19;4.60;;;3.05;;
56999;SDS011;42891;50.006;21.964;2023-07-24T01:20:01;4.20;;;2.95;;
56999;SDS011;42891;50.006;21.964;2023-07-24T01:28:20;6.03;;;3.00;;
56999;SDS011;42891;50.006;21.964;2023-07-24T01:32:21;4.40;;;3.13;;
56999;SDS011;42891;50.006;21.964;2023-07-24T01:36:21;5.88;;;3.35;;
56999;SDS011;42891;50.006;21.964;2023-07-24T01:40:22;6.65;;;3.20;;
56999;SDS011;42891;50.006;21.964;2023-07-24T01:44:23;4.13;;;2.97;;
56999;SDS011;42891;50.006;21.964;2023-07-24T01:48:24;6.72;;;3.20;;
56999;SDS011;42891;50.006;21.964;2023-07-24T01:52:25;6.07;;;3.30;;
56999;SDS011;42891;50.006;21.964;2023-07-24T01:56:25;4.93;;;2.92;;
56999;SDS011;42891;50.006;21.964;2023-07-24T02:00:26;4.90;;;3.30;;
56999;SDS011;42891;50.006;21.964;2023-07-24T02:04:26;4.53;;;3.20;;
56999;SDS011;42891;50.006;21.964;2023-07-24T02:08:26;4.40;;;2.95;;
56999;SDS011;42891;50.006;21.964;2023-07-24T02:12:27;7.18;;;3.50;;
56999;SDS011;42891;50.006;21.964;2023-07-24T02:16:27;6.30;;;3.40;;
56999;SDS011;42891;50.006;21.964;2023-07-24T02:20:27;5.13;;;3.08;;
56999;SDS011;42891;50.006;21.964;2023-07-24T02:24:28;9.30;;;3.35;;
56999;SDS011;42891;50.006;21.964;2023-07-24T02:28:28;6.00;;;2.92;;
56999;SDS011;42891;50.006;21.964;2023-07-24T02:32:28;4.67;;;3.30;;
56999;SDS011;42891;50.006;21.964;2023-07-24T02:36:29;6.32;;;3.30;;
56999;SDS011;42891;50.006;21.964;2023-07-24T02:40:29;4.15;;;3.33;;
56999;SDS011;42891;50.006;21.964;2023-07-24T02:44:29;5.70;;;3.07;;
56999;SDS011;42891;50.006;21.964;2023-07-24T02:48:30;5.37;;;3.30;;
56999;SDS011;42891;50.006;21.964;2023-07-24T02:52:30;4.78;;;3.20;;
56999;SDS011;42891;50.006;21.964;2023-07-24T02:56:30;6.40;;;3.53;;
56999;SDS011;42891;50.006;21.964;2023-07-24T03:00:31;7.70;;;3.43;;
56999;SDS011;42891;50.006;21.964;2023-07-24T03:04:31;6.28;;;3.13;;
56999;SDS011;42891;50.006;21.964;2023-07-24T03:08:32;4.77;;;3.10;;
56999;SDS011;42891;50.006;21.964;2023-07-24T03:12:32;6.32;;;3.42;;
56999;SDS011;42891;50.006;21.964;2023-07-24T03:16:32;4.88;;;3.55;;
56999;SDS011;42891;50.006;21.964;2023-07-24T03:20:33;8.20;;;3.60;;
56999;SDS011;42891;50.006;21.964;2023-07-24T03:24:33;4.93;;;3.22;;
56999;SDS011;42891;50.006;21.964;2023-07-24T03:28:34;7.82;;;3.47;;
56999;SDS011;42891;50.006;21.964;2023-07-24T03:32:35;7.40;;;4.10;;
56999;SDS011;42891;50.006;21.964;2023-07-24T03:36:38;4.78;;;3.60;;
56999;SDS011;42891;50.006;21.964;2023-07-24T03:40:41;4.75;;;3.70;;
56999;SDS011;42891;50.006;21.964;2023-07-24T03:44:42;6.43;;;4.35;;
56999;SDS011;42891;50.006;21.964;2023-07-24T03:48:42;7.22;;;3.97;;
56999;SDS011;42891;50.006;21.964;2023-07-24T03:52:42;5.82;;;3.80;;
56999;SDS011;42891;50.006;21.964;2023-07-24T03:56:43;5.43;;;3.72;;
56999;SDS011;42891;50.006;21.964;2023-07-24T04:00:43;3.92;;;2.95;;
56999;SDS011;42891;50.006;21.964;2023-07-24T04:04:44;8.35;;;3.35;;
56999;SDS011;42891;50.006;21.964;2023-07-24T04:08:44;5.57;;;3.33;;
56999;SDS011;42891;50.006;21.964;2023-07-24T04:12:44;4.45;;;3.10;;
56999;SDS011;42891;50.006;21.964;2023-07-24T04:16:45;5.00;;;3.20;;
56999;SDS011;42891;50.006;21.964;2023-07-24T04:20:45;4.53;;;3.10;;
56999;SDS011;42891;50.006;21.964;2023-07-24T04:24:46;7.60;;;3.53;;
56999;SDS011;42891;50.006;21.964;2023-07-24T04:28:46;6.90;;;3.20;;
56999;SDS011;42891;50.006;21.964;2023-07-24T04:32:46;7.40;;;3.80;;
56999;SDS011;42891;50.006;21.964;2023-07-24T04:36:47;4.55;;;3.40;;
56999;SDS011;42891;50.006;21.964;2023-07-24T04:40:47;4.63;;;3.40;;
56999;SDS011;42891;50.006;21.964;2023-07-24T04:44:47;7.90;;;3.50;;
56999;SDS011;42891;50.006;21.964;2023-07-24T04:48:50;5.57;;;3.30;;
56999;SDS011;42891;50.006;21.964;2023-07-24T04:52:50;5.03;;;3.30;;
56999;SDS011;42891;50.006;21.964;2023-07-24T04:56:50;5.35;;;3.08;;
56999;SDS011;42891;50.006;21.964;2023-07-24T05:00:51;6.07;;;3.63;;
56999;SDS011;42891;50.006;21.964;2023-07-24T05:04:51;6.13;;;3.38;;
56999;SDS011;42891;50.006;21.964;2023-07-24T05:08:54;6.83;;;3.70;;
56999;SDS011;42891;50.006;21.964;2023-07-24T05:12:54;8.05;;;3.65;;
56999;SDS011;42891;50.006;21.964;2023-07-24T05:16:56;4.40;;;3.30;;
56999;SDS011;42891;50.006;21.964;2023-07-24T05:20:57;4.22;;;3.20;;
56999;SDS011;42891;50.006;21.964;2023-07-24T05:24:57;6.05;;;3.55;;
56999;SDS011;42891;50.006;21.964;2023-07-24T05:28:57;10.00;;;3.60;;
56999;SDS011;42891;50.006;21.964;2023-07-24T05:32:57;7.70;;;3.40;;
56999;SDS011;42891;50.006;21.964;2023-07-24T05:36:58;6.43;;;3.50;;
56999;SDS011;42891;50.006;21.964;2023-07-24T05:40:59;6.13;;;3.70;;
56999;SDS011;42891;50.006;21.964;2023-07-24T05:45:00;5.25;;;3.53;;
56999;SDS011;42891;50.006;21.964;2023-07-24T05:49:01;6.80;;;3.67;;
56999;SDS011;42891;50.006;21.964;2023-07-24T05:53:01;5.20;;;3.30;;
56999;SDS011;42891;50.006;21.964;2023-07-24T05:57:01;6.40;;;3.30;;
56999;SDS011;42891;50.006;21.964;2023-07-24T06:01:02;3.97;;;3.08;;
56999;SDS011;42891;50.006;21.964;2023-07-24T06:05:03;5.57;;;3.63;;
56999;SDS011;42891;50.006;21.964;2023-07-24T06:09:04;5.35;;;3.80;;
56999;SDS011;42891;50.006;21.964;2023-07-24T06:13:04;6.28;;;3.20;;
56999;SDS011;42891;50.006;21.964;2023-07-24T06:17:04;10.60;;;3.93;;
56999;SDS011;42891;50.006;21.964;2023-07-24T06:21:05;5.55;;;3.67;;
56999;SDS011;42891;50.006;21.964;2023-07-24T06:25:05;5.47;;;3.67;;
56999;SDS011;42891;50.006;21.964;2023-07-24T06:29:06;4.72;;;3.60;;
56999;SDS011;42891;50.006;21.964;2023-07-24T06:33:06;7.20;;;3.83;;
56999;SDS011;42891;50.006;21.964;2023-07-24T06:37:06;5.55;;;3.70;;
56999;SDS011;42891;50.006;21.964;2023-07-24T06:41:07;5.43;;;3.33;;
56999;SDS011;42891;50.006;21.964;2023-07-24T06:45:07;6.57;;;3.53;;
56999;SDS011;42891;50.006;21.964;2023-07-24T06:49:08;6.35;;;3.50;;
56999;SDS011;42891;50.006;21.964;2023-07-24T06:53:08;6.78;;;4.03;;
56999;SDS011;42891;50.006;21.964;2023-07-24T06:57:08;5.85;;;3.50;;
56999;SDS011;42891;50.006;21.964;2023-07-24T07:01:09;7.78;;;3.83;;
56999;SDS011;42891;50.006;21.964;2023-07-24T07:05:09;5.03;;;3.33;;
56999;SDS011;42891;50.006;21.964;2023-07-24T07:09:10;7.57;;;3.67;;
56999;SDS011;42891;50.006;21.964;2023-07-24T07:13:10;7.20;;;3.70;;
56999;SDS011;42891;50.006;21.964;2023-07-24T07:17:10;7.25;;;3.40;;
56999;SDS011;42891;50.006;21.964;2023-07-24T07:21:10;7.33;;;3.90;;
56999;SDS011;42891;50.006;21.964;2023-07-24T07:25:11;6.53;;;4.00;;
56999;SDS011;42891;50.006;21.964;2023-07-24T07:29:11;6.20;;;3.63;;
56999;SDS011;42891;50.006;21.964;2023-07-24T07:33:12;5.97;;;3.55;;
56999;SDS011;42891;50.006;21.964;2023-07-24T07:37:12;5.97;;;3.67;;
56999;SDS011;42891;50.006;21.964;2023-07-24T07:41:12;5.47;;;4.00;;
56999;SDS011;42891;50.006;21.964;2023-07-24T07:45:13;7.40;;;3.63;;
56999;SDS011;42891;50.006;21.964;2023-07-24T07:49:13;9.85;;;3.97;;
56999;SDS011;42891;50.006;21.964;2023-07-24T07:53:13;5.35;;;3.58;;
56999;SDS011;42891;50.006;21.964;2023-07-24T07:57:14;7.73;;;4.30;;
56999;SDS011;42891;50.006;21.964;2023-07-24T08:01:15;6.78;;;3.72;;
56999;SDS011;42891;50.006;21.964;2023-07-24T08:05:15;6.47;;;4.00;;
56999;SDS011;42891;50.006;21.964;2023-07-24T08:09:15;5.78;;;3.80;;
56999;SDS011;42891;50.006;21.964;2023-07-24T08:13:17;7.30;;;4.05;;
56999;SDS011;42891;50.006;21.964;2023-07-24T08:17:17;6.67;;;3.67;;
56999;SDS011;42891;50.006;21.964;2023-07-24T08:21:18;6.50;;;3.90;;
56999;SDS011;42891;50.006;21.964;2023-07-24T08:25:18;5.60;;;4.00;;
56999;SDS011;42891;50.006;21.964;2023-07-24T08:29:18;7.03;;;3.77;;
56999;SDS011;42891;50.006;21.964;2023-07-24T08:33:19;6.55;;;4.03;;
56999;SDS011;42891;50.006;21.964;2023-07-24T08:37:19;7.07;;;4.22;;
56999;SDS011;42891;50.006;21.964;2023-07-24T08:41:19;5.85;;;3.95;;
56999;SDS011;42891;50.006;21.964;2023-07-24T08:45:20;5.82;;;4.20;;
56999;SDS011;42891;50.006;21.964;2023-07-24T08:49:23;7.40;;;4.07;;
56999;SDS011;42891;50.006;21.964;2023-07-24T08:53:24;5.30;;;3.58;;
56999;SDS011;42891;50.006;21.964;2023-07-24T08:57:25;8.98;;;4.40;;
56999;SDS011;42891;50.006;21.964;2023-07-24T09:01:25;7.43;;;4.07;;
56999;SDS011;42891;50.006;21.964;2023-07-24T09:05:25;8.18;;;4.60;;
56999;SDS011;42891;50.006;21.964;2023-07-24T09:09:28;9.70;;;4.27;;
56999;SDS011;42891;50.006;21.964;2023-07-24T09:13:30;6.78;;;4.10;;
56999;SDS011;42891;50.006;21.964;2023-07-24T09:17:31;6.72;;;4.25;;
56999;SDS011;42891;50.006;21.964;2023-07-24T09:21:31;7.22;;;3.65;;
56999;SDS011;42891;50.006;21.964;2023-07-24T09:25:32;6.00;;;4.20;;
56999;SDS011;42891;50.006;21.964;2023-07-24T09:29:34;7.43;;;4.45;;
56999;SDS011;42891;50.006;21.964;2023-07-24T09:37:39;7.50;;;4.70;;
56999;SDS011;42891;50.006;21.964;2023-07-24T09:41:40;7.15;;;4.50;;
56999;SDS011;42891;50.006;21.964;2023-07-24T09:45:41;7.82;;;4.63;;
56999;SDS011;42891;50.006;21.964;2023-07-24T09:49:42;6.68;;;4.43;;
56999;SDS011;42891;50.006;21.964;2023-07-24T09:53:43;6.22;;;4.50;;
56999;SDS011;42891;50.006;21.964;2023-07-24T09:57:48;8.02;;;5.10;;
56999;SDS011;42891;50.006;21.964;2023-07-24T10:01:51;6.25;;;4.50;;
56999;SDS011;42891;50.006;21.964;2023-07-24T10:05:53;7.45;;;4.32;;
56999;SDS011;42891;50.006;21.964;2023-07-24T10:09:54;7.75;;;4.72;;
56999;SDS011;42891;50.006;21.964;2023-07-24T10:13:55;10.60;;;4.70;;
56999;SDS011;42891;50.006;21.964;2023-07-24T10:18:02;8.20;;;4.68;;
56999;SDS011;42891;50.006;21.964;2023-07-24T10:22:04;8.10;;;4.85;;
56999;SDS011;42891;50.006;21.964;2023-07-24T10:26:05;8.10;;;4.80;;
56999;SDS011;42891;50.006;21.964;2023-07-24T10:30:06;7.88;;;4.63;;
56999;SDS011;42891;50.006;21.964;2023-07-24T10:34:07;8.15;;;4.65;;
56999;SDS011;42891;50.006;21.964;2023-07-24T10:38:08;14.18;;;4.65;;
56999;SDS011;42891;50.006;21.964;2023-07-24T10:42:09;8.25;;;4.88;;
56999;SDS011;42891;50.006;21.964;2023-07-24T10:46:11;6.95;;;4.85;;
56999;SDS011;42891;50.006;21.964;2023-07-24T10:50:12;6.40;;;4.45;;
56999;SDS011;42891;50.006;21.964;2023-07-24T10:54:12;9.30;;;5.00;;
56999;SDS011;42891;50.006;21.964;2023-07-24T10:58:12;9.77;;;4.67;;
56999;SDS011;42891;50.006;21.964;2023-07-24T11:02:14;8.38;;;4.55;;
56999;SDS011;42891;50.006;21.964;2023-07-24T11:06:20;6.75;;;4.47;;
56999;SDS011;42891;50.006;21.964;2023-07-24T11:14:23;7.20;;;4.63;;
56999;SDS011;42891;50.006;21.964;2023-07-24T11:18:23;7.45;;;4.75;;
56999;SDS011;42891;50.006;21.964;2023-07-24T11:22:26;8.48;;;5.10;;
56999;SDS011;42891;50.006;21.964;2023-07-24T11:26:27;9.60;;;4.93;;
56999;SDS011;42891;50.006;21.964;2023-07-24T11:30:28;6.57;;;5.07;;
56999;SDS011;42891;50.006;21.964;2023-07-24T11:34:28;8.57;;;4.83;;
56999;SDS011;42891;50.006;21.964;2023-07-24T11:38:28;7.28;;;4.85;;
56999;SDS011;42891;50.006;21.964;2023-07-24T11:42:29;9.60;;;5.45;;
56999;SDS011;42891;50.006;21.964;2023-07-24T11:46:29;8.68;;;4.95;;
56999;SDS011;42891;50.006;21.964;2023-07-24T11:50:41;8.98;;;4.60;;
56999;SDS011;42891;50.006;21.964;2023-07-24T11:54:42;7.63;;;4.50;;
56999;SDS011;42891;50.006;21.964;2023-07-24T11:58:42;8.07;;;4.80;;
56999;SDS011;42891;50.006;21.964;2023-07-24T12:02:43;7.07;;;4.70;;
56999;SDS011;42891;50.006;21.964;2023-07-24T12:06:43;9.13;;;4.95;;
56999;SDS011;42891;50.006;21.964;2023-07-24T12:10:44;6.05;;;5.18;;
56999;SDS011;42891;50.006;21.964;2023-07-24T12:14:44;8.35;;;5.05;;
56999;SDS011;42891;50.006;21.964;2023-07-24T12:18:45;8.27;;;5.17;;
56999;SDS011;42891;50.006;21.964;2023-07-24T12:22:45;7.80;;;4.83;;
56999;SDS011;42891;50.006;21.964;2023-07-24T12:26:46;6.75;;;5.45;;
56999;SDS011;42891;50.006;21.964;2023-07-24T12:30:47;7.97;;;5.03;;
56999;SDS011;42891;50.006;21.964;2023-07-24T12:34:49;6.45;;;5.20;;
56999;SDS011;42891;50.006;21.964;2023-07-24T12:38:50;8.35;;;4.78;;
56999;SDS011;42891;50.006;21.964;2023-07-24T12:42:51;8.10;;;5.25;;
56999;SDS011;42891;50.006;21.964;2023-07-24T12:46:52;7.68;;;5.00;;
56999;SDS011;42891;50.006;21.964;2023-07-24T12:50:53;8.82;;;5.20;;
56999;SDS011;42891;50.006;21.964;2023-07-24T12:54:54;7.72;;;4.90;;
56999;SDS011;42891;50.006;21.964;2023-07-24T12:58:54;6.65;;;4.85;;
56999;SDS011;42891;50.006;21.964;2023-07-24T13:02:55;8.88;;;5.40;;
56999;SDS011;42891;50.006;21.964;2023-07-24T13:06:55;12.07;;;5.78;;
56999;SDS011;42891;50.006;21.964;2023-07-24T13:10:55;10.50;;;6.00;;
56999;SDS011;42891;50.006;21.964;2023-07-24T13:14:56;10.50;;;5.57;;
56999;SDS011;42891;50.006;21.964;2023-07-24T13:18:56;6.00;;;5.38;;
56999;SDS011;42891;50.006;21.964;2023-07-24T13:22:57;8.43;;;5.18;;
56999;SDS011;42891;50.006;21.964;2023-07-24T13:26:57;7.90;;;5.22;;
56999;SDS011;42891;50.006;21.964;2023-07-24T13:30:57;6.75;;;5.43;;
56999;SDS011;42891;50.006;21.964;2023-07-24T13:34:58;8.82;;;6.10;;
56999;SDS011;42891;50.006;21.964;2023-07-24T13:38:59;11.30;;;5.25;;
56999;SDS011;42891;50.006;21.964;2023-07-24T13:43:00;7.80;;;5.87;;
56999;SDS011;42891;50.006;21.964;2023-07-24T13:47:00;8.37;;;5.77;;
56999;SDS011;42891;50.006;21.964;2023-07-24T13:51:00;7.10;;;5.63;;
56999;SDS011;42891;50.006;21.964;2023-07-24T13:55:01;7.32;;;5.93;;
56999;SDS011;42891;50.006;21.964;2023-07-24T13:59:01;8.35;;;5.75;;
56999;SDS011;42891;50.006;21.964;2023-07-24T14:03:03;11.38;;;6.15;;
56999;SDS011;42891;50.006;21.964;2023-07-24T14:07:03;8.32;;;5.93;;
56999;SDS011;42891;50.006;21.964;2023-07-24T14:11:03;12.02;;;5.95;;
56999;SDS011;42891;50.006;21.964;2023-07-24T14:15:04;7.03;;;6.05;;
56999;SDS011;42891;50.006;21.964;2023-07-24T14:19:05;10.20;;;6.00;;
56999;SDS011;42891;50.006;21.964;2023-07-24T14:23:06;12.00;;;6.07;;
56999;SDS011;42891;50.006;21.964;2023-07-24T14:27:07;7.82;;;6.05;;
56999;SDS011;42891;50.006;21.964;2023-07-24T14:31:08;14.10;;;6.82;;
56999;SDS011;42891;50.006;21.964;2023-07-24T14:35:08;10.77;;;6.17;;
56999;SDS011;42891;50.006;21.964;2023-07-24T14:39:08;8.43;;;6.00;;
56999;SDS011;42891;50.006;21.964;2023-07-24T14:43:09;11.85;;;6.95;;
56999;SDS011;42891;50.006;21.964;2023-07-24T14:47:09;9.15;;;7.18;;
56999;SDS011;42891;50.006;21.964;2023-07-24T14:51:09;11.43;;;6.95;;
56999;SDS011;42891;50.006;21.964;2023-07-24T14:55:10;7.90;;;7.00;;
56999;SDS011;42891;50.006;21.964;2023-07-24T14:59:10;10.43;;;6.35;;
56999;SDS011;42891;50.006;21.964;2023-07-24T15:03:10;9.68;;;6.97;;
56999;SDS011;42891;50.006;21.964;2023-07-24T15:07:11;9.83;;;7.03;;
56999;SDS011;42891;50.006;21.964;2023-07-24T15:11:11;12.55;;;6.90;;
56999;SDS011;42891;50.006;21.964;2023-07-24T15:15:13;9.70;;;7.40;;
56999;SDS011;42891;50.006;21.964;2023-07-24T15:19:13;11.25;;;6.85;;
56999;SDS011;42891;50.006;21.964;2023-07-24T15:23:13;9.50;;;7.43;;
56999;SDS011;42891;50.006;21.964;2023-07-24T15:27:14;13.20;;;7.70;;
56999;SDS011;42891;50.006;21.964;2023-07-24T15:31:14;11.98;;;7.63;;
56999;SDS011;42891;50.006;21.964;2023-07-24T15:35:15;12.48;;;7.50;;
56999;SDS011;42891;50.006;21.964;2023-07-24T15:39:15;10.02;;;7.38;;
56999;SDS011;42891;50.006;21.964;2023-07-24T15:43:16;9.75;;;7.70;;
56999;SDS011;42891;50.006;21.964;2023-07-24T15:47:16;11.90;;;7.57;;
56999;SDS011;42891;50.006;21.964;2023-07-24T15:51:17;9.65;;;7.95;;
56999;SDS011;42891;50.006;21.964;2023-07-24T15:55:17;12.82;;;7.80;;
56999;SDS011;42891;50.006;21.964;2023-07-24T15:59:18;11.77;;;8.02;;
56999;SDS011;42891;50.006;21.964;2023-07-24T16:03:18;8.90;;;7.37;;
56999;SDS011;42891;50.006;21.964;2023-07-24T16:07:18;11.55;;;7.63;;
56999;SDS011;42891;50.006;21.964;2023-07-24T16:11:19;11.23;;;7.63;;
56999;SDS011;42891;50.006;21.964;2023-07-24T16:15:20;11.85;;;7.75;;
56999;SDS011;42891;50.006;21.964;2023-07-24T16:19:20;10.05;;;7.93;;
56999;SDS011;42891;50.006;21.964;2023-07-24T16:23:21;12.60;;;8.05;;
56999;SDS011;42891;50.006;21.964;2023-07-24T16:27:21;11.82;;;8.27;;
56999;SDS011;42891;50.006;21.964;2023-07-24T16:31:21;13.53;;;8.30;;
56999;SDS011;42891;50.006;21.964;2023-07-24T16:35:22;10.88;;;8.25;;
56999;SDS011;42891;50.006;21.964;2023-07-24T16:39:23;10.57;;;7.90;;
56999;SDS011;42891;50.006;21.964;2023-07-24T16:43:23;12.75;;;8.70;;
56999;SDS011;42891;50.006;21.964;2023-07-24T16:47:24;10.90;;;7.60;;
56999;SDS011;42891;50.006;21.964;2023-07-24T16:51:24;11.55;;;8.25;;
56999;SDS011;42891;50.006;21.964;2023-07-24T16:55:25;10.60;;;8.15;;
56999;SDS011;42891;50.006;21.964;2023-07-24T16:59:25;12.60;;;8.20;;
56999;SDS011;42891;50.006;21.964;2023-07-24T17:03:27;11.30;;;8.63;;
56999;SDS011;42891;50.006;21.964;2023-07-24T17:07:28;10.50;;;8.18;;
56999;SDS011;42891;50.006;21.964;2023-07-24T17:11:28;12.23;;;8.50;;
56999;SDS011;42891;50.006;21.964;2023-07-24T17:15:29;12.38;;;8.57;;
56999;SDS011;42891;50.006;21.964;2023-07-24T17:19:29;11.17;;;8.07;;
56999;SDS011;42891;50.006;21.964;2023-07-24T17:23:29;13.10;;;8.52;;
56999;SDS011;42891;50.006;21.964;2023-07-24T17:27:30;11.75;;;8.02;;
56999;SDS011;42891;50.006;21.964;2023-07-24T17:31:31;13.82;;;8.82;;
56999;SDS011;42891;50.006;21.964;2023-07-24T17:35:32;12.35;;;9.02;;
56999;SDS011;42891;50.006;21.964;2023-07-24T17:39:35;10.48;;;8.05;;
56999;SDS011;42891;50.006;21.964;2023-07-24T17:43:35;9.70;;;8.23;;
56999;SDS011;42891;50.006;21.964;2023-07-24T17:47:36;14.20;;;8.45;;
56999;SDS011;42891;50.006;21.964;2023-07-24T17:51:36;11.13;;;7.67;;
56999;SDS011;42891;50.006;21.964;2023-07-24T17:55:36;11.82;;;8.05;;
56999;SDS011;42891;50.006;21.964;2023-07-24T17:59:37;11.07;;;7.65;;
56999;SDS011;42891;50.006;21.964;2023-07-24T18:03:38;11.20;;;8.10;;
56999;SDS011;42891;50.006;21.964;2023-07-24T18:07:38;11.93;;;8.10;;
56999;SDS011;42891;50.006;21.964;2023-07-24T18:11:39;9.73;;;7.85;;
56999;SDS011;42891;50.006;21.964;2023-07-24T18:15:39;12.70;;;8.25;;
56999;SDS011;42891;50.006;21.964;2023-07-24T18:19:40;12.90;;;8.52;;
56999;SDS011;42891;50.006;21.964;2023-07-24T18:23:40;14.30;;;8.80;;
56999;SDS011;42891;50.006;21.964;2023-07-24T18:27:40;13.60;;;8.88;;
56999;SDS011;42891;50.006;21.964;2023-07-24T18:31:41;12.93;;;9.38;;
56999;SDS011;42891;50.006;21.964;2023-07-24T18:35:41;18.43;;;9.90;;
56999;SDS011;42891;50.006;21.964;2023-07-24T18:39:42;14.13;;;9.18;;
56999;SDS011;42891;50.006;21.964;2023-07-24T18:43:43;11.87;;;8.70;;
56999;SDS011;42891;50.006;21.964;2023-07-24T18:47:43;14.02;;;9.38;;
56999;SDS011;42891;50.006;21.964;2023-07-24T18:51:44;14.35;;;9.38;;
56999;SDS011;42891;50.006;21.964;2023-07-24T18:55:44;14.73;;;9.50;;
56999;SDS011;42891;50.006;21.964;2023-07-24T18:59:44;15.97;;;9.03;;
56999;SDS011;42891;50.006;21.964;2023-07-24T19:03:45;13.80;;;10.10;;
56999;SDS011;42891;50.006;21.964;2023-07-24T19:07:45;13.50;;;9.63;;
56999;SDS011;42891;50.006;21.964;2023-07-24T19:11:45;17.07;;;10.10;;
56999;SDS011;42891;50.006;21.964;2023-07-24T19:15:45;15.93;;;9.63;;
56999;SDS011;42891;50.006;21.964;2023-07-24T19:19:46;12.50;;;9.10;;
56999;SDS011;42891;50.006;21.964;2023-07-24T19:23:46;15.47;;;9.83;;
56999;SDS011;42891;50.006;21.964;2023-07-24T19:27:46;12.45;;;9.65;;
56999;SDS011;42891;50.006;21.964;2023-07-24T19:31:47;14.10;;;9.80;;
56999;SDS011;42891;50.006;21.964;2023-07-24T19:35:49;14.85;;;9.85;;
56999;SDS011;42891;50.006;21.964;2023-07-24T19:39:49;15.20;;;10.10;;
56999;SDS011;42891;50.006;21.964;2023-07-24T19:43:50;13.13;;;9.43;;
56999;SDS011;42891;50.006;21.964;2023-07-24T19:47:50;14.18;;;9.95;;
56999;SDS011;42891;50.006;21.964;2023-07-24T19:51:50;13.80;;;10.60;;
56999;SDS011;42891;50.006;21.964;2023-07-24T19:55:51;14.18;;;10.77;;
56999;SDS011;42891;50.006;21.964;2023-07-24T19:59:53;15.40;;;10.35;;
56999;SDS011;42891;50.006;21.964;2023-07-24T20:03:53;12.00;;;9.57;;
56999;SDS011;42891;50.006;21.964;2023-07-24T20:07:54;15.38;;;10.32;;
56999;SDS011;42891;50.006;21.964;2023-07-24T20:11:54;13.80;;;9.57;;
56999;SDS011;42891;50.006;21.964;2023-07-24T20:15:55;15.95;;;10.20;;
56999;SDS011;42891;50.006;21.964;2023-07-24T20:19:56;14.13;;;10.30;;
56999;SDS011;42891;50.006;21.964;2023-07-24T20:24:06;16.40;;;9.60;;
56999;SDS011;42891;50.006;21.964;2023-07-24T20:28:08;14.55;;;7.53;;
56999;SDS011;42891;50.006;21.964;2023-07-24T20:32:08;8.93;;;6.15;;
56999;SDS011;42891;50.006;21.964;2023-07-24T20:36:09;8.55;;;5.60;;
56999;SDS011;42891;50.006;21.964;2023-07-24T20:40:12;10.85;;;5.22;;
56999;SDS011;42891;50.006;21.964;2023-07-24T20:44:13;10.05;;;4.40;;
56999;SDS011;42891;50.006;21.964;2023-07-24T20:48:13;7.37;;;4.50;;
56999;SDS011;42891;50.006;21.964;2023-07-24T20:52:13;9.55;;;5.25;;
56999;SDS011;42891;50.006;21.964;2023-07-24T20:56:14;7.03;;;4.18;;
56999;SDS011;42891;50.006;21.964;2023-07-24T21:00:15;7.50;;;4.20;;
56999;SDS011;42891;50.006;21.964;2023-07-24T21:04:15;9.70;;;4.63;;
56999;SDS011;42891;50.006;21.964;2023-07-24T21:08:15;8.50;;;5.00;;
56999;SDS011;42891;50.006;21.964;2023-07-24T21:12:16;9.40;;;5.50;;
56999;SDS011;42891;50.006;21.964;2023-07-24T21:16:16;7.45;;;5.50;;
56999;SDS011;42891;50.006;21.964;2023-07-24T21:20:16;10.35;;;5.97;;
56999;SDS011;42891;50.006;21.964;2023-07-24T21:24:17;14.88;;;5.95;;
56999;SDS011;42891;50.006;21.964;2023-07-24T21:28:17;11.88;;;5.10;;
56999;SDS011;42891;50.006;21.964;2023-07-24T21:32:18;9.88;;;4.90;;
56999;SDS011;42891;50.006;21.964;2023-07-24T21:36:18;12.35;;;4.93;;
56999;SDS011;42891;50.006;21.964;2023-07-24T21:40:19;8.80;;;5.05;;
56999;SDS011;42891;50.006;21.964;2023-07-24T21:44:19;7.93;;;4.30;;
56999;SDS011;42891;50.006;21.964;2023-07-24T21:48:19;6.35;;;4.25;;
56999;SDS011;42891;50.006;21.964;2023-07-24T21:52:20;8.73;;;4.82;;
56999;SDS011;42891;50.006;21.964;2023-07-24T21:56:20;8.50;;;4.72;;
56999;SDS011;42891;50.006;21.964;2023-07-24T22:00:21;7.80;;;4.35;;
56999;SDS011;42891;50.006;21.964;2023-07-24T22:04:24;8.52;;;4.90;;
56999;SDS011;42891;50.006;21.964;2023-07-24T22:08:24;8.45;;;4.60;;
56999;SDS011;42891;50.006;21.964;2023-07-24T22:12:24;6.82;;;4.63;;
56999;SDS011;42891;50.006;21.964;2023-07-24T22:16:25;7.93;;;4.73;;
56999;SDS011;42891;50.006;21.964;2023-07-24T22:20:25;8.43;;;4.15;;
56999;SDS011;42891;50.006;21.964;2023-07-24T22:24:27;7.05;;;4.70;;
56999;SDS011;42891;50.006;21.964;2023-07-24T22:28:28;8.30;;;4.40;;
56999;SDS011;42891;50.006;21.964;2023-07-24T22:32:28;7.68;;;4.78;;
56999;SDS011;42891;50.006;21.964;2023-07-24T22:36:29;6.47;;;4.47;;
56999;SDS011;42891;50.006;21.964;2023-07-24T22:40:30;9.10;;;5.40;;
56999;SDS011;42891;50.006;21.964;2023-07-24T22:44:31;9.77;;;6.10;;
56999;SDS011;42891;50.006;21.964;2023-07-24T22:48:31;10.02;;;6.45;;
56999;SDS011;42891;50.006;21.964;2023-07-24T22:52:31;10.40;;;6.32;;
56999;SDS011;42891;50.006;21.964;2023-07-24T22:56:32;8.35;;;6.20;;
56999;SDS011;42891;50.006;21.964;2023-07-24T23:00:32;7.50;;;5.47;;
56999;SDS011;42891;50.006;21.964;2023-07-24T23:04:33;8.05;;;5.60;;
56999;SDS011;42891;50.006;21.964;2023-07-24T23:08:33;6.25;;;4.82;;
56999;SDS011;42891;50.006;21.964;2023-07-24T23:12:33;6.43;;;4.13;;
56999;SDS011;42891;50.006;21.964;2023-07-24T23:16:34;5.03;;;4.30;;
56999;SDS011;42891;50.006;21.964;2023-07-24T23:20:34;6.35;;;3.97;;
56999;SDS011;42891;50.006;21.964;2023-07-24T23:24:35;4.90;;;3.60;;
56999;SDS011;42891;50.006;21.964;2023-07-24T23:28:35;4.77;;;3.23;;
56999;SDS011;42891;50.006;21.964;2023-07-24T23:32:35;4.82;;;4.00;;
56999;SDS011;42891;50.006;21.964;2023-07-24T23:36:36;6.13;;;3.83;;
56999;SDS011;42891;50.006;21.964;2023-07-24T23:40:36;5.63;;;3.63;;
56999;SDS011;42891;50.006;21.964;2023-07-24T23:44:37;4.70;;;3.88;;
56999;SDS011;42891;50.006;21.964;2023-07-24T23:48:37;4.77;;;3.50;;
56999;SDS011;42891;50.006;21.964;2023-07-24T23:52:38;6.13;;;3.30;;
56999;SDS011;42891;50.006;21.964;2023-07-24T23:56:38;4.87;;;3.30;;
